Hauptseite
METAR-TAF:

METAR-TAF

Flughäfen :

Selibe-Phikwe, Botsuana

Breite: 22-03-19S, Länge: 027-49-13E, Höhe: 892 m

Beobachtung

Neuester Wetterbericht von vor 2 Stunden und 48 Minuten, um 18:00 UTC
Wind 1 kt aus unterschiedlichen Richtungen
Temperatur 18°C
Luftfeuchtigkeit 59%
Luftdruck 1025 hPa
Sichtweite 10 km oder mehr
keine Wolken unter 1500 m und keine Kumulonimbus oder Gewitterwolken

METAR: FBSP 021800Z VRB01KT CAVOK 18/10 Q1025

Zeit: 22:48 (20:48 UTC)

Prognose

Neuester Wetterbericht von vor 8 Stunden und 48 Minuten, um 12:00 UTC
Gültige Prognose vom 02 um 15 UTC bis 02 um 24 UTC
Wind 11 kt aus Ost
Sichtweite 10 km oder mehr
keine Wolken unter 1500 m und keine Kumulonimbus oder Gewitterwolken

TAF: FBSP 021200Z 0215/0224 09011KT CAVOK

Wetterbeobachtungen und Prognosen von mehr als 4000 Flughäfen (METAR und TAF Bericht).

Die verfügbaren Stationen werden durch gelbe und rote Markierungen auf der Karte dargestellt.

Führen Sie die Maus auf sie, um den Namen der Station zu sehen.

Darauf klicken, um die Beobachtung von Wetterbeobachtungen und Prognosen zu sehen.

Um die Karte zu ändern : klicken Sie auf den grünen Tasten mit einem schwarzen Kreuz Zum Vergrößern, auf den grünen Button mit einem Gedankenstrich zu verkleinern, oder auf die grünen Pfeile für benachbarte Karten.


METAR-TAF: